Royal Clipper — 9HA2796 — position and weather

sailwx.info

Track history (hours):
 
Tides and Currents Weather Stations Pressure Air Temp Water Temp Dewpoint Dewpoint Depression Visibility Wind Speed Wind Dir Waves Ship Positions

Royal Clipper

Last reported at 2019-Jun-13 05:33 UTC. Time now 2019-Jun-16 01:18 UTC.
Position N 41°54' E 009°39'.

Length 137 m; draft 6.2 m.

Type: Ship. MMSI: 215813000.

Date/timePositionNaut miles runAvg speedWind from/ knotsBaromVisibWave heightAir tempDewpointWater temp
2019-Jun-13 05:33N 41°54' E 009°39'0 8.8
2019-Jun-13 05:29N 41°55' E 009°39'26 5.1
2019-Jun-13 00:25N 42°20' E 009°49'2 5.3
2019-Jun-13 00:00N 42°22' E 009°50'2 4.1
2019-Jun-12 23:30N 42°24' E 009°51'2 4.3
2019-Jun-12 22:58N 42°26' E 009°52'2 5.2
2019-Jun-12 22:30N 42°28' E 009°54'2 4.8
2019-Jun-12 22:00N 42°30' E 009°55'2 4.6
2019-Jun-12 21:30N 42°32' E 009°56'3 5.0
2019-Jun-12 20:57N 42°35' E 009°57'7 6.2
2019-Jun-12 19:45N 42°42' E 010°00'2 5.6
2019-Jun-12 19:24N 42°44' E 010°01'3 5.4
2019-Jun-12 18:49N 42°47' E 010°03'2 5.1
2019-Jun-12 18:30N 42°48' E 010°03'4 8.7
2019-Jun-12 18:00N 42°51' E 010°08'5 9.3
2019-Jun-12 17:30N 42°52' E 010°14'4 8.0
2019-Jun-12 17:00N 42°52' E 010°19'3 5.5
2019-Jun-12 16:28N 42°49' E 010°21'1 0.7
2019-Jun-12 15:07N 42°49' E 010°20'0 0.0
2019-Jun-12 11:28N 42°49' E 010°20'0 0.0
2019-Jun-12 07:46N 42°49' E 010°20'0 0.0
2019-Jun-12 07:28N 42°49' E 010°20'5 1.8
2019-Jun-12 04:35N 42°54' E 010°17'14 4.7
2019-Jun-12 01:39N 42°58' E 009°59'1 2.3
2019-Jun-12 01:23N 42°58' E 009°58'7 3.5
2019-Jun-11 23:13N 42°53' E 009°50'2 2.4
2019-Jun-11 22:18N 42°51' E 009°49'1 2.3
2019-Jun-11 21:52N 42°50' E 009°48'4 2.9
2019-Jun-11 20:19N 42°46' E 009°45'1 2.9
2019-Jun-11 19:59N 42°45' E 009°44'6 8.0
2019-Jun-11 19:16N 42°42' E 009°37'3 9.1
2019-Jun-11 18:57N 42°41' E 009°34'5 0.7
2019-Jun-11 12:24N 42°41' E 009°27'20 1.0
2019-Jun-10 17:05N 42°43' E 009°01'1 7.6
2019-Jun-10 17:00N 42°42' E 009°00'3 6.4
2019-Jun-10 16:30N 42°39' E 008°58'1 0.7
2019-Jun-10 15:13N 42°39' E 008°57'2 0.3
2019-Jun-10 08:12N 42°41' E 008°58'1 4.4
2019-Jun-10 08:00N 42°42' E 008°58'2 4.2
2019-Jun-10 07:27N 42°44' E 008°58'3 4.7
2019-Jun-10 06:46N 42°47' E 008°59'4 8.0
2019-Jun-10 06:18N 42°51' E 008°59'3 7.8
2019-Jun-10 05:55N 42°54' E 008°59'3 7.6
2019-Jun-10 05:30N 42°57' E 008°59'4 7.3
2019-Jun-10 04:59N 43°00' E 009°02'3 5.9
2019-Jun-10 04:29N 43°03' E 009°03'1 2.9
2019-Jun-10 04:00N 43°05' E 009°03'3 6.1
2019-Jun-10 03:30N 43°08' E 009°03'8 7.1
2019-Jun-10 02:20N 43°16' E 009°05'3 8.7
2019-Jun-10 01:59N 43°19' E 009°06'6 9.8
2019-Jun-10 01:25N 43°24' E 009°07'4 9.3
2019-Jun-10 01:00N 43°28' E 009°08'4 7.1
2019-Jun-10 00:29N 43°32' E 009°09'3 6.8
2019-Jun-10 00:00N 43°35' E 009°09'4 8.0
2019-Jun-09 23:30N 43°39' E 009°10'2 4.9
2019-Jun-09 23:00N 43°41' E 009°10'2 4.0
2019-Jun-09 22:30N 43°43' E 009°11'2 3.8
2019-Jun-09 22:00N 43°45' E 009°11'2 3.7
2019-Jun-09 21:30N 43°47' E 009°11'2 3.6
2019-Jun-09 21:00N 43°49' E 009°12'2 3.6
2019-Jun-09 20:30N 43°51' E 009°12'2 3.3
2019-Jun-09 20:00N 43°52' E 009°12'3 5.3
2019-Jun-09 19:30N 43°55' E 009°13'4 7.9
2019-Jun-09 19:00N 43°59' E 009°14'4 8.1
2019-Jun-09 18:31N 44°03' E 009°15'4 8.2
2019-Jun-09 18:00N 44°07' E 009°16'5 9.5
2019-Jun-09 17:31N 44°12' E 009°17'6 9.4
2019-Jun-09 16:55N 44°17' E 009°18'2 5.6
2019-Jun-09 16:29N 44°19' E 009°15'2 0.3
2019-Jun-09 09:27N 44°17' E 009°18'4 9.3
2019-Jun-09 09:00N 44°15' E 009°13'5 9.4
2019-Jun-09 08:30N 44°13' E 009°07'5 9.4
2019-Jun-09 08:00N 44°10' E 009°01'5 9.7
2019-Jun-09 07:30N 44°08' E 008°55'5 9.6
2019-Jun-09 06:59N 44°06' E 008°49'5 9.7
2019-Jun-09 06:30N 44°04' E 008°44'5 9.4
2019-Jun-09 06:00N 44°01' E 008°38'4 8.9
2019-Jun-09 05:30N 43°59' E 008°32'4 8.8
2019-Jun-09 05:00N 43°57' E 008°27'9 8.9
2019-Jun-09 04:00N 43°53' E 008°16'5 9.4
2019-Jun-09 03:30N 43°51' E 008°10'4 8.8
2019-Jun-09 03:00N 43°49' E 008°05'4 8.4
2019-Jun-09 02:31N 43°47' E 007°60'4 8.3
2019-Jun-09 02:00N 43°45' E 007°55'4 8.5
2019-Jun-09 01:30N 43°43' E 007°49'4 8.6
2019-Jun-09 01:00N 43°42' E 007°44'4 8.5
2019-Jun-09 00:30N 43°40' E 007°38'4 8.5
2019-Jun-09 00:00N 43°38' E 007°33'4 8.5
2019-Jun-08 23:30N 43°36' E 007°28'4 8.6
2019-Jun-08 23:01N 43°35' E 007°22'4 8.7
2019-Jun-08 22:30N 43°33' E 007°17'4 8.9
2019-Jun-08 22:00N 43°31' E 007°11'4 8.8
2019-Jun-08 21:30N 43°29' E 007°06'3 5.4
2019-Jun-08 21:00N 43°29' E 007°02'3 5.3
2019-Jun-08 20:30N 43°31' E 007°01'1 2.1
2019-Jun-08 19:59N 43°32' E 007°01'0 0.1
2019-Jun-08 19:29N 43°32' E 007°01'0 0.0
2019-Jun-08 18:59N 43°32' E 007°01'0 0.0
2019-Jun-08 18:29N 43°32' E 007°01'0 0.0
2019-Jun-08 17:59N 43°32' E 007°01'0 0.0
2019-Jun-08 17:29N 43°32' E 007°01'0 0.0
2019-Jun-08 16:59N 43°32' E 007°01'0 0.0
2019-Jun-08 16:29N 43°32' E 007°01'0 0.0
2019-Jun-08 15:53N 43°32' E 007°01'0 0.0
2019-Jun-08 15:26N 43°32' E 007°01'0 0.0
2019-Jun-08 14:59N 43°32' E 007°01'0 0.0
2019-Jun-08 14:26N 43°32' E 007°01'0 0.0
2019-Jun-08 13:59N 43°32' E 007°01'0 0.0
2019-Jun-08 13:29N 43°32' E 007°01'0 0.0
2019-Jun-08 12:59N 43°32' E 007°01'0 0.0
2019-Jun-08 12:29N 43°32' E 007°01'0 0.0
2019-Jun-08 11:56N 43°32' E 007°01'0 0.0
2019-Jun-08 11:29N 43°32' E 007°01'0 0.0
2019-Jun-08 10:59N 43°32' E 007°01'0 0.0
2019-Jun-08 10:29N 43°32' E 007°01'0 0.0
2019-Jun-08 09:59N 43°32' E 007°01'0 0.0
2019-Jun-08 09:29N 43°32' E 007°01'0 0.0
2019-Jun-08 08:59N 43°32' E 007°01'0 0.1
2019-Jun-08 08:29N 43°32' E 007°01'0 0.0
2019-Jun-08 07:59N 43°32' E 007°01'0 0.0
2019-Jun-08 07:29N 43°32' E 007°01'0 0.0
2019-Jun-08 06:59N 43°32' E 007°01'0 0.0
2019-Jun-08 06:29N 43°32' E 007°01'0 0.0
2019-Jun-08 05:59N 43°32' E 007°01'0 0.0
2019-Jun-08 05:29N 43°32' E 007°01'1 2.3
2019-Jun-08 05:00N 43°31' E 007°01'4 7.1
2019-Jun-08 04:30N 43°28' E 006°59'1 1.3
2019-Jun-08 04:00N 43°27' E 006°60'1 2.3
2019-Jun-08 03:30N 43°26' E 006°59'1 2.8
2019-Jun-08 03:00N 43°25' E 006°59'2 3.7
2019-Jun-08 02:30N 43°23' E 006°58'2 3.5
2019-Jun-08 02:00N 43°22' E 006°56'2 3.1
2019-Jun-08 01:30N 43°21' E 006°55'1 2.9
2019-Jun-08 01:00N 43°20' E 006°53'1 2.4
2019-Jun-08 00:30N 43°19' E 006°51'1 2.1
2019-Jun-07 23:59N 43°19' E 006°50'1 2.1
2019-Jun-07 23:28N 43°18' E 006°49'0 0.8
2019-Jun-07 23:00N 43°18' E 006°48'5 0.4
2019-Jun-07 09:14N 43°18' E 006°41'1 5.0
2019-Jun-07 08:56N 43°18' E 006°43'5 2.3
2019-Jun-07 06:48N 43°13' E 006°41'22 4.7
2019-Jun-07 02:12N 42°56' E 006°23'5 6.5
2019-Jun-07 01:28N 42°56' E 006°16'47 1.9
2019-Jun-06 00:14N 42°36' E 007°15'6 8.6
2019-Jun-05 23:32N 42°33' E 007°21'11 8.8
2019-Jun-05 22:15N 42°27' E 007°34'3 8.7
2019-Jun-05 21:52N 42°26' E 007°38'7 8.9
2019-Jun-05 21:05N 42°23' E 007°47'1 9.0
2019-Jun-05 21:00N 42°22' E 007°48'5 8.7
2019-Jun-05 20:26N 42°19' E 007°53'4 9.0
2019-Jun-05 19:58N 42°17' E 007°58'5 9.2
2019-Jun-05 19:28N 42°14' E 008°03'4 9.0
2019-Jun-05 19:00N 42°11' E 008°07'6 9.2
2019-Jun-05 18:22N 42°08' E 008°13'5 8.9
2019-Jun-05 17:46N 42°04' E 008°19'2 8.9
2019-Jun-05 17:30N 42°03' E 008°21'10 8.5
2019-Jun-05 16:21N 41°57' E 008°32'4 1.3
2019-Jun-05 13:29N 41°56' E 008°37'0 0.0
2019-Jun-05 12:56N 41°56' E 008°37'0 0.0
2019-Jun-05 12:29N 41°56' E 008°37'0 0.0
2019-Jun-05 11:56N 41°56' E 008°37'0 0.1
2019-Jun-05 11:29N 41°56' E 008°37'0 0.0
2019-Jun-05 10:59N 41°56' E 008°37'0 0.0
2019-Jun-05 10:26N 41°56' E 008°37'0 0.0
2019-Jun-05 10:00N 41°56' E 008°37'0 0.0
2019-Jun-05 09:29N 41°56' E 008°37'0 0.0
2019-Jun-05 08:59N 41°56' E 008°37'0 0.0
2019-Jun-05 08:26N 41°56' E 008°37'0 0.0
2019-Jun-05 07:59N 41°56' E 008°37'7 2.2
2019-Jun-05 04:49N 42°00' E 008°30'2 6.4
2019-Jun-05 04:28N 42°03' E 008°29'4 9.4
2019-Jun-05 04:00N 42°07' E 008°28'5 9.3
2019-Jun-05 03:30N 42°11' E 008°27'5 9.3
2019-Jun-05 03:00N 42°16' E 008°26'6 9.1
2019-Jun-05 02:20N 42°22' E 008°25'2 6.9
2019-Jun-05 01:59N 42°24' E 008°25'3 5.2
2019-Jun-05 01:30N 42°27' E 008°25'1 2.1
2019-Jun-05 01:01N 42°28' E 008°26'0 0.3
2019-Jun-05 00:31N 42°28' E 008°26'1 1.5
2019-Jun-05 00:00N 42°29' E 008°27'0 0.9
2019-Jun-04 23:30N 42°29' E 008°27'0 0.8
2019-Jun-04 23:01N 42°29' E 008°28'1 1.4
2019-Jun-04 22:30N 42°30' E 008°28'1 1.7
2019-Jun-04 22:00N 42°30' E 008°29'1 2.3
2019-Jun-04 21:30N 42°31' E 008°30'2 3.2
2019-Jun-04 21:00N 42°33' E 008°31'2 3.5
2019-Jun-04 20:31N 42°34' E 008°32'2 3.4
2019-Jun-04 20:00N 42°36' E 008°34'1 2.7
2019-Jun-04 19:31N 42°37' E 008°35'1 2.1
2019-Jun-04 19:00N 42°37' E 008°36'1 2.2
2019-Jun-04 18:31N 42°37' E 008°38'1 2.2
2019-Jun-04 18:00N 42°37' E 008°39'4 7.8
2019-Jun-04 17:30N 42°36' E 008°45'2 4.1
2019-Jun-04 16:57N 42°34' E 008°46'0 0.0
2019-Jun-04 16:30N 42°34' E 008°46'0 0.0
2019-Jun-04 16:00N 42°34' E 008°46'0 0.0
2019-Jun-04 15:27N 42°34' E 008°46'0 0.0
2019-Jun-04 14:57N 42°34' E 008°46'0 0.0
2019-Jun-04 14:30N 42°34' E 008°46'0 0.0
2019-Jun-04 14:00N 42°34' E 008°46'0 0.0
2019-Jun-04 13:30N 42°34' E 008°46'0 0.0
2019-Jun-04 13:00N 42°34' E 008°46'0 0.0
2019-Jun-04 12:30N 42°34' E 008°46'0 0.0
2019-Jun-04 11:57N 42°34' E 008°46'0 0.0
2019-Jun-04 11:30N 42°34' E 008°46'0 0.0
2019-Jun-04 10:57N 42°34' E 008°46'0 0.0
2019-Jun-04 10:30N 42°34' E 008°46'0 0.0
2019-Jun-04 10:00N 42°34' E 008°46'0 0.0
2019-Jun-04 09:30N 42°34' E 008°46'0 0.0
2019-Jun-04 09:00N 42°34' E 008°46'0 0.0
2019-Jun-04 08:30N 42°34' E 008°46'0 0.1
2019-Jun-04 08:00N 42°34' E 008°46'2 4.8
2019-Jun-04 07:30N 42°37' E 008°45'4 7.3
2019-Jun-04 07:00N 42°40' E 008°47'4 7.3
2019-Jun-04 06:30N 42°43' E 008°50'4 8.3
2019-Jun-04 06:00N 42°47' E 008°53'4 8.5
2019-Jun-04 05:30N 42°50' E 008°56'3 5.8
2019-Jun-04 05:00N 42°53' E 008°58'1 1.7
2019-Jun-04 04:30N 42°53' E 008°57'1 2.3
2019-Jun-04 04:00N 42°54' E 008°55'1 1.8
2019-Jun-04 03:30N 42°54' E 008°54'1 2.6
2019-Jun-04 03:00N 42°55' E 008°53'2 3.5
2019-Jun-04 02:30N 42°56' E 008°51'2 3.4
2019-Jun-04 02:00N 42°57' E 008°49'2 3.3
2019-Jun-04 01:30N 42°58' E 008°48'2 3.9
2019-Jun-04 01:00N 42°60' E 008°46'2 3.7
2019-Jun-04 00:30N 43°01' E 008°44'2 3.6
2019-Jun-04 00:00N 43°02' E 008°42'2 3.8
2019-Jun-03 23:30N 43°03' E 008°40'2 3.6
2019-Jun-03 23:00N 43°04' E 008°38'2 3.5
2019-Jun-03 22:30N 43°05' E 008°36'1 3.0
2019-Jun-03 22:00N 43°06' E 008°34'2 4.0
2019-Jun-03 21:30N 43°04' E 008°36'2 4.9
2019-Jun-03 21:00N 43°03' E 008°39'3 6.1
2019-Jun-03 20:30N 43°01' E 008°42'3 6.8
2019-Jun-03 20:00N 42°58' E 008°45'3 6.8
2019-Jun-03 19:30N 42°55' E 008°47'3 6.8
2019-Jun-03 19:00N 42°52' E 008°50'3 5.2
2019-Jun-03 18:30N 42°50' E 008°51'2 4.9
2019-Jun-03 18:00N 42°48' E 008°53'2 5.0
2019-Jun-03 17:30N 42°46' E 008°55'3 5.3
2019-Jun-03 17:00N 42°43' E 008°56'4 7.4
2019-Jun-03 16:31N 42°40' E 008°56'1 2.3
2019-Jun-03 15:59N 42°39' E 008°57'0 0.0
2019-Jun-03 15:29N 42°39' E 008°57'0 0.0
2019-Jun-03 14:59N 42°39' E 008°57'0 0.0
2019-Jun-03 14:29N 42°39' E 008°57'0 0.0
2019-Jun-03 13:59N 42°39' E 008°57'0 0.0
2019-Jun-03 13:29N 42°39' E 008°57'0 0.0
2019-Jun-03 12:59N 42°39' E 008°57'0 0.0
2019-Jun-03 12:29N 42°39' E 008°57'0 0.0
2019-Jun-03 11:59N 42°39' E 008°57'0 0.0
2019-Jun-03 11:29N 42°39' E 008°57'0 0.0
2019-Jun-03 10:59N 42°39' E 008°57'0 0.0
2019-Jun-03 10:29N 42°39' E 008°57'0 0.0
2019-Jun-03 09:59N 42°39' E 008°57'0 0.0
2019-Jun-03 09:29N 42°39' E 008°57'0 0.0
2019-Jun-03 08:59N 42°39' E 008°57'1 1.4
2019-Jun-03 08:30N 42°39' E 008°57'3 5.6
2019-Jun-03 08:00N 42°42' E 008°58'5 9.6
2019-Jun-03 07:30N 42°47' E 008°59'4 8.9
2019-Jun-03 07:00N 42°51' E 008°60'4 8.8
2019-Jun-03 06:30N 42°56' E 009°00'4 8.7
2019-Jun-03 06:00N 43°00' E 009°01'  
Track history (hours):
 
Tides and Currents Weather Stations Pressure Air Temp Water Temp Dewpoint Dewpoint Depression Visibility Wind Speed Wind Dir Waves Ship Positions

Royal Clipper

Last reported at 2019-Jun-13 05:33 UTC. Time now 2019-Jun-16 01:18 UTC.
Position N 41°54' E 009°39'.

Length 137 m; draft 6.2 m.

Type: Ship. MMSI: 215813000.

Date/timePositionNaut miles runAvg speedWind from/ knotsBaromVisibWave heightAir tempDewpointWater temp
2019-Jun-13 05:33N 41°54' E 009°39'0 8.8
2019-Jun-13 05:29N 41°55' E 009°39'26 5.1
2019-Jun-13 00:25N 42°20' E 009°49'2 5.3
2019-Jun-13 00:00N 42°22' E 009°50'2 4.1
2019-Jun-12 23:30N 42°24' E 009°51'2 4.3
2019-Jun-12 22:58N 42°26' E 009°52'2 5.2
2019-Jun-12 22:30N 42°28' E 009°54'2 4.8
2019-Jun-12 22:00N 42°30' E 009°55'2 4.6
2019-Jun-12 21:30N 42°32' E 009°56'3 5.0
2019-Jun-12 20:57N 42°35' E 009°57'7 6.2
2019-Jun-12 19:45N 42°42' E 010°00'2 5.6
2019-Jun-12 19:24N 42°44' E 010°01'3 5.4
2019-Jun-12 18:49N 42°47' E 010°03'2 5.1
2019-Jun-12 18:30N 42°48' E 010°03'4 8.7
2019-Jun-12 18:00N 42°51' E 010°08'5 9.3
2019-Jun-12 17:30N 42°52' E 010°14'4 8.0
2019-Jun-12 17:00N 42°52' E 010°19'3 5.5
2019-Jun-12 16:28N 42°49' E 010°21'1 0.7
2019-Jun-12 15:07N 42°49' E 010°20'0 0.0
2019-Jun-12 11:28N 42°49' E 010°20'0 0.0
2019-Jun-12 07:46N 42°49' E 010°20'0 0.0
2019-Jun-12 07:28N 42°49' E 010°20'5 1.8
2019-Jun-12 04:35N 42°54' E 010°17'14 4.7
2019-Jun-12 01:39N 42°58' E 009°59'1 2.3
2019-Jun-12 01:23N 42°58' E 009°58'7 3.5
2019-Jun-11 23:13N 42°53' E 009°50'2 2.4
2019-Jun-11 22:18N 42°51' E 009°49'1 2.3
2019-Jun-11 21:52N 42°50' E 009°48'4 2.9
2019-Jun-11 20:19N 42°46' E 009°45'1 2.9
2019-Jun-11 19:59N 42°45' E 009°44'6 8.0
2019-Jun-11 19:16N 42°42' E 009°37'3 9.1
2019-Jun-11 18:57N 42°41' E 009°34'5 0.7
2019-Jun-11 12:24N 42°41' E 009°27'20 1.0
2019-Jun-10 17:05N 42°43' E 009°01'1 7.6
2019-Jun-10 17:00N 42°42' E 009°00'3 6.4
2019-Jun-10 16:30N 42°39' E 008°58'1 0.7
2019-Jun-10 15:13N 42°39' E 008°57'2 0.3
2019-Jun-10 08:12N 42°41' E 008°58'1 4.4
2019-Jun-10 08:00N 42°42' E 008°58'2 4.2
2019-Jun-10 07:27N 42°44' E 008°58'3 4.7
2019-Jun-10 06:46N 42°47' E 008°59'4 8.0
2019-Jun-10 06:18N 42°51' E 008°59'3 7.8
2019-Jun-10 05:55N 42°54' E 008°59'3 7.6
2019-Jun-10 05:30N 42°57' E 008°59'4 7.3
2019-Jun-10 04:59N 43°00' E 009°02'3 5.9
2019-Jun-10 04:29N 43°03' E 009°03'1 2.9
2019-Jun-10 04:00N 43°05' E 009°03'3 6.1
2019-Jun-10 03:30N 43°08' E 009°03'8 7.1
2019-Jun-10 02:20N 43°16' E 009°05'3 8.7
2019-Jun-10 01:59N 43°19' E 009°06'6 9.8
2019-Jun-10 01:25N 43°24' E 009°07'4 9.3
2019-Jun-10 01:00N 43°28' E 009°08'4 7.1
2019-Jun-10 00:29N 43°32' E 009°09'3 6.8
2019-Jun-10 00:00N 43°35' E 009°09'4 8.0
2019-Jun-09 23:30N 43°39' E 009°10'2 4.9
2019-Jun-09 23:00N 43°41' E 009°10'2 4.0
2019-Jun-09 22:30N 43°43' E 009°11'2 3.8
2019-Jun-09 22:00N 43°45' E 009°11'2 3.7
2019-Jun-09 21:30N 43°47' E 009°11'2 3.6
2019-Jun-09 21:00N 43°49' E 009°12'2 3.6
2019-Jun-09 20:30N 43°51' E 009°12'2 3.3
2019-Jun-09 20:00N 43°52' E 009°12'3 5.3
2019-Jun-09 19:30N 43°55' E 009°13'4 7.9
2019-Jun-09 19:00N 43°59' E 009°14'4 8.1
2019-Jun-09 18:31N 44°03' E 009°15'4 8.2
2019-Jun-09 18:00N 44°07' E 009°16'5 9.5
2019-Jun-09 17:31N 44°12' E 009°17'6 9.4
2019-Jun-09 16:55N 44°17' E 009°18'2 5.6
2019-Jun-09 16:29N 44°19' E 009°15'2 0.3
2019-Jun-09 09:27N 44°17' E 009°18'4 9.3
2019-Jun-09 09:00N 44°15' E 009°13'5 9.4
2019-Jun-09 08:30N 44°13' E 009°07'5 9.4
2019-Jun-09 08:00N 44°10' E 009°01'5 9.7
2019-Jun-09 07:30N 44°08' E 008°55'5 9.6
2019-Jun-09 06:59N 44°06' E 008°49'5 9.7
2019-Jun-09 06:30N 44°04' E 008°44'5 9.4
2019-Jun-09 06:00N 44°01' E 008°38'4 8.9
2019-Jun-09 05:30N 43°59' E 008°32'4 8.8
2019-Jun-09 05:00N 43°57' E 008°27'9 8.9
2019-Jun-09 04:00N 43°53' E 008°16'5 9.4
2019-Jun-09 03:30N 43°51' E 008°10'4 8.8
2019-Jun-09 03:00N 43°49' E 008°05'4 8.4
2019-Jun-09 02:31N 43°47' E 007°60'4 8.3
2019-Jun-09 02:00N 43°45' E 007°55'4 8.5
2019-Jun-09 01:30N 43°43' E 007°49'4 8.6
2019-Jun-09 01:00N 43°42' E 007°44'4 8.5
2019-Jun-09 00:30N 43°40' E 007°38'4 8.5
2019-Jun-09 00:00N 43°38' E 007°33'4 8.5
2019-Jun-08 23:30N 43°36' E 007°28'4 8.6
2019-Jun-08 23:01N 43°35' E 007°22'4 8.7
2019-Jun-08 22:30N 43°33' E 007°17'4 8.9
2019-Jun-08 22:00N 43°31' E 007°11'4 8.8
2019-Jun-08 21:30N 43°29' E 007°06'3 5.4
2019-Jun-08 21:00N 43°29' E 007°02'3 5.3
2019-Jun-08 20:30N 43°31' E 007°01'1 2.1
2019-Jun-08 19:59N 43°32' E 007°01'0 0.1
2019-Jun-08 19:29N 43°32' E 007°01'0 0.0
2019-Jun-08 18:59N 43°32' E 007°01'0 0.0
2019-Jun-08 18:29N 43°32' E 007°01'0 0.0
2019-Jun-08 17:59N 43°32' E 007°01'0 0.0
2019-Jun-08 17:29N 43°32' E 007°01'0 0.0
2019-Jun-08 16:59N 43°32' E 007°01'0 0.0
2019-Jun-08 16:29N 43°32' E 007°01'0 0.0
2019-Jun-08 15:53N 43°32' E 007°01'0 0.0
2019-Jun-08 15:26N 43°32' E 007°01'0 0.0
2019-Jun-08 14:59N 43°32' E 007°01'0 0.0
2019-Jun-08 14:26N 43°32' E 007°01'0 0.0
2019-Jun-08 13:59N 43°32' E 007°01'0 0.0
2019-Jun-08 13:29N 43°32' E 007°01'0 0.0
2019-Jun-08 12:59N 43°32' E 007°01'0 0.0
2019-Jun-08 12:29N 43°32' E 007°01'0 0.0
2019-Jun-08 11:56N 43°32' E 007°01'0 0.0
2019-Jun-08 11:29N 43°32' E 007°01'0 0.0
2019-Jun-08 10:59N 43°32' E 007°01'0 0.0
2019-Jun-08 10:29N 43°32' E 007°01'0 0.0
2019-Jun-08 09:59N 43°32' E 007°01'0 0.0
2019-Jun-08 09:29N 43°32' E 007°01'0 0.0
2019-Jun-08 08:59N 43°32' E 007°01'0 0.1
2019-Jun-08 08:29N 43°32' E 007°01'0 0.0
2019-Jun-08 07:59N 43°32' E 007°01'0 0.0
2019-Jun-08 07:29N 43°32' E 007°01'0 0.0
2019-Jun-08 06:59N 43°32' E 007°01'0 0.0
2019-Jun-08 06:29N 43°32' E 007°01'0 0.0
2019-Jun-08 05:59N 43°32' E 007°01'0 0.0
2019-Jun-08 05:29N 43°32' E 007°01'1 2.3
2019-Jun-08 05:00N 43°31' E 007°01'4 7.1
2019-Jun-08 04:30N 43°28' E 006°59'1 1.3
2019-Jun-08 04:00N 43°27' E 006°60'1 2.3
2019-Jun-08 03:30N 43°26' E 006°59'1 2.8
2019-Jun-08 03:00N 43°25' E 006°59'2 3.7
2019-Jun-08 02:30N 43°23' E 006°58'2 3.5
2019-Jun-08 02:00N 43°22' E 006°56'2 3.1
2019-Jun-08 01:30N 43°21' E 006°55'1 2.9
2019-Jun-08 01:00N 43°20' E 006°53'1 2.4
2019-Jun-08 00:30N 43°19' E 006°51'1 2.1
2019-Jun-07 23:59N 43°19' E 006°50'1 2.1
2019-Jun-07 23:28N 43°18' E 006°49'0 0.8
2019-Jun-07 23:00N 43°18' E 006°48'5 0.4
2019-Jun-07 09:14N 43°18' E 006°41'1 5.0
2019-Jun-07 08:56N 43°18' E 006°43'5 2.3
2019-Jun-07 06:48N 43°13' E 006°41'22 4.7
2019-Jun-07 02:12N 42°56' E 006°23'5 6.5
2019-Jun-07 01:28N 42°56' E 006°16'47 1.9
2019-Jun-06 00:14N 42°36' E 007°15'6 8.6
2019-Jun-05 23:32N 42°33' E 007°21'11 8.8
2019-Jun-05 22:15N 42°27' E 007°34'3 8.7
2019-Jun-05 21:52N 42°26' E 007°38'7 8.9
2019-Jun-05 21:05N 42°23' E 007°47'1 9.0
2019-Jun-05 21:00N 42°22' E 007°48'5 8.7
2019-Jun-05 20:26N 42°19' E 007°53'4 9.0
2019-Jun-05 19:58N 42°17' E 007°58'5 9.2
2019-Jun-05 19:28N 42°14' E 008°03'4 9.0
2019-Jun-05 19:00N 42°11' E 008°07'6 9.2
2019-Jun-05 18:22N 42°08' E 008°13'5 8.9
2019-Jun-05 17:46N 42°04' E 008°19'2 8.9
2019-Jun-05 17:30N 42°03' E 008°21'10 8.5
2019-Jun-05 16:21N 41°57' E 008°32'4 1.3
2019-Jun-05 13:29N 41°56' E 008°37'0 0.0
2019-Jun-05 12:56N 41°56' E 008°37'0 0.0
2019-Jun-05 12:29N 41°56' E 008°37'0 0.0
2019-Jun-05 11:56N 41°56' E 008°37'0 0.1
2019-Jun-05 11:29N 41°56' E 008°37'0 0.0
2019-Jun-05 10:59N 41°56' E 008°37'0 0.0
2019-Jun-05 10:26N 41°56' E 008°37'0 0.0
2019-Jun-05 10:00N 41°56' E 008°37'0 0.0
2019-Jun-05 09:29N 41°56' E 008°37'0 0.0
2019-Jun-05 08:59N 41°56' E 008°37'0 0.0
2019-Jun-05 08:26N 41°56' E 008°37'0 0.0
2019-Jun-05 07:59N 41°56' E 008°37'7 2.2
2019-Jun-05 04:49N 42°00' E 008°30'2 6.4
2019-Jun-05 04:28N 42°03' E 008°29'4 9.4
2019-Jun-05 04:00N 42°07' E 008°28'5 9.3
2019-Jun-05 03:30N 42°11' E 008°27'5 9.3
2019-Jun-05 03:00N 42°16' E 008°26'6 9.1
2019-Jun-05 02:20N 42°22' E 008°25'2 6.9
2019-Jun-05 01:59N 42°24' E 008°25'3 5.2
2019-Jun-05 01:30N 42°27' E 008°25'1 2.1
2019-Jun-05 01:01N 42°28' E 008°26'0 0.3
2019-Jun-05 00:31N 42°28' E 008°26'1 1.5
2019-Jun-05 00:00N 42°29' E 008°27'0 0.9
2019-Jun-04 23:30N 42°29' E 008°27'0 0.8
2019-Jun-04 23:01N 42°29' E 008°28'1 1.4
2019-Jun-04 22:30N 42°30' E 008°28'1 1.7
2019-Jun-04 22:00N 42°30' E 008°29'1 2.3
2019-Jun-04 21:30N 42°31' E 008°30'2 3.2
2019-Jun-04 21:00N 42°33' E 008°31'2 3.5
2019-Jun-04 20:31N 42°34' E 008°32'2 3.4
2019-Jun-04 20:00N 42°36' E 008°34'1 2.7
2019-Jun-04 19:31N 42°37' E 008°35'1 2.1
2019-Jun-04 19:00N 42°37' E 008°36'1 2.2
2019-Jun-04 18:31N 42°37' E 008°38'1 2.2
2019-Jun-04 18:00N 42°37' E 008°39'4 7.8
2019-Jun-04 17:30N 42°36' E 008°45'2 4.1
2019-Jun-04 16:57N 42°34' E 008°46'0 0.0
2019-Jun-04 16:30N 42°34' E 008°46'0 0.0
2019-Jun-04 16:00N 42°34' E 008°46'0 0.0
2019-Jun-04 15:27N 42°34' E 008°46'0 0.0
2019-Jun-04 14:57N 42°34' E 008°46'0 0.0
2019-Jun-04 14:30N 42°34' E 008°46'0 0.0
2019-Jun-04 14:00N 42°34' E 008°46'0 0.0
2019-Jun-04 13:30N 42°34' E 008°46'0 0.0
2019-Jun-04 13:00N 42°34' E 008°46'0 0.0
2019-Jun-04 12:30N 42°34' E 008°46'0 0.0
2019-Jun-04 11:57N 42°34' E 008°46'0 0.0
2019-Jun-04 11:30N 42°34' E 008°46'0 0.0
2019-Jun-04 10:57N 42°34' E 008°46'0 0.0
2019-Jun-04 10:30N 42°34' E 008°46'0 0.0
2019-Jun-04 10:00N 42°34' E 008°46'0 0.0
2019-Jun-04 09:30N 42°34' E 008°46'0 0.0
2019-Jun-04 09:00N 42°34' E 008°46'0 0.0
2019-Jun-04 08:30N 42°34' E 008°46'0 0.1
2019-Jun-04 08:00N 42°34' E 008°46'2 4.8
2019-Jun-04 07:30N 42°37' E 008°45'4 7.3
2019-Jun-04 07:00N 42°40' E 008°47'4 7.3
2019-Jun-04 06:30N 42°43' E 008°50'4 8.3
2019-Jun-04 06:00N 42°47' E 008°53'4 8.5
2019-Jun-04 05:30N 42°50' E 008°56'3 5.8
2019-Jun-04 05:00N 42°53' E 008°58'1 1.7
2019-Jun-04 04:30N 42°53' E 008°57'1 2.3
2019-Jun-04 04:00N 42°54' E 008°55'1 1.8
2019-Jun-04 03:30N 42°54' E 008°54'1 2.6
2019-Jun-04 03:00N 42°55' E 008°53'2 3.5
2019-Jun-04 02:30N 42°56' E 008°51'2 3.4
2019-Jun-04 02:00N 42°57' E 008°49'2 3.3
2019-Jun-04 01:30N 42°58' E 008°48'2 3.9
2019-Jun-04 01:00N 42°60' E 008°46'2 3.7
2019-Jun-04 00:30N 43°01' E 008°44'2 3.6
2019-Jun-04 00:00N 43°02' E 008°42'2 3.8
2019-Jun-03 23:30N 43°03' E 008°40'2 3.6
2019-Jun-03 23:00N 43°04' E 008°38'2 3.5
2019-Jun-03 22:30N 43°05' E 008°36'1 3.0
2019-Jun-03 22:00N 43°06' E 008°34'2 4.0
2019-Jun-03 21:30N 43°04' E 008°36'2 4.9
2019-Jun-03 21:00N 43°03' E 008°39'3 6.1
2019-Jun-03 20:30N 43°01' E 008°42'3 6.8
2019-Jun-03 20:00N 42°58' E 008°45'3 6.8
2019-Jun-03 19:30N 42°55' E 008°47'3 6.8
2019-Jun-03 19:00N 42°52' E 008°50'3 5.2
2019-Jun-03 18:30N 42°50' E 008°51'2 4.9
2019-Jun-03 18:00N 42°48' E 008°53'2 5.0
2019-Jun-03 17:30N 42°46' E 008°55'3 5.3
2019-Jun-03 17:00N 42°43' E 008°56'4 7.4
2019-Jun-03 16:31N 42°40' E 008°56'1 2.3
2019-Jun-03 15:59N 42°39' E 008°57'0 0.0
2019-Jun-03 15:29N 42°39' E 008°57'0 0.0
2019-Jun-03 14:59N 42°39' E 008°57'0 0.0
2019-Jun-03 14:29N 42°39' E 008°57'0 0.0
2019-Jun-03 13:59N 42°39' E 008°57'0 0.0
2019-Jun-03 13:29N 42°39' E 008°57'0 0.0
2019-Jun-03 12:59N 42°39' E 008°57'0 0.0
2019-Jun-03 12:29N 42°39' E 008°57'0 0.0
2019-Jun-03 11:59N 42°39' E 008°57'0 0.0
2019-Jun-03 11:29N 42°39' E 008°57'0 0.0
2019-Jun-03 10:59N 42°39' E 008°57'0 0.0
2019-Jun-03 10:29N 42°39' E 008°57'0 0.0
2019-Jun-03 09:59N 42°39' E 008°57'0 0.0
2019-Jun-03 09:29N 42°39' E 008°57'0 0.0
2019-Jun-03 08:59N 42°39' E 008°57'1 1.4
2019-Jun-03 08:30N 42°39' E 008°57'3 5.6
2019-Jun-03 08:00N 42°42' E 008°58'5 9.6
2019-Jun-03 07:30N 42°47' E 008°59'4 8.9
2019-Jun-03 07:00N 42°51' E 008°60'4 8.8
2019-Jun-03 06:30N 42°56' E 009°00'4 8.7
2019-Jun-03 06:00N 43°00' E 009°01'  

Dump ship's entire track history